createdAt,value
2022-11-30T00:00:22.479Z,90.90
2022-11-30T00:05:44.420Z,90.41
2022-11-30T00:11:11.325Z,90.64
2022-11-30T00:16:33.164Z,91.80
2022-11-30T00:21:54.997Z,92.32
2022-11-30T00:27:16.828Z,91.89
2022-11-30T00:32:38.599Z,92.46
2022-11-30T00:38:02.246Z,92.47
2022-11-30T00:43:24.078Z,91.59
2022-11-30T00:48:45.946Z,91.47
2022-11-30T00:54:07.732Z,93.01
2022-11-30T00:59:29.504Z,92.97
2022-11-30T01:04:51.312Z,92.38
2022-11-30T01:10:13.117Z,91.83
2022-11-30T01:15:40.697Z,90.52
2022-11-30T01:21:06.051Z,91.00
2022-11-30T01:26:27.827Z,90.64
2022-11-30T01:31:49.594Z,91.07
2022-11-30T01:37:11.399Z,90.13
2022-11-30T01:42:33.474Z,90.58
2022-11-30T01:47:57.289Z,91.93
2022-11-30T01:53:19.317Z,90.84
2022-11-30T01:58:41.121Z,92.13
2022-11-30T02:04:09.838Z,91.18
2022-11-30T02:09:39.760Z,90.93
2022-11-30T02:15:09.425Z,91.25
2022-11-30T02:20:47.726Z,89.88
2022-11-30T02:26:24.786Z,89.84
2022-11-30T02:32:14.228Z,89.99
2022-11-30T02:37:38.526Z,90.63
2022-11-30T02:43:03.346Z,89.74
2022-11-30T02:54:04.583Z,90.15
2022-11-30T02:59:26.758Z,89.41
2022-11-30T03:04:48.819Z,90.32
2022-11-30T03:10:11.009Z,91.45
2022-11-30T03:15:32.907Z,90.73
2022-11-30T03:20:54.771Z,93.11
2022-11-30T03:26:16.546Z,92.05
2022-11-30T03:31:38.339Z,91.02
2022-11-30T03:37:00.146Z,91.24
2022-11-30T03:42:21.901Z,91.88
2022-11-30T03:47:43.695Z,93.42
2022-11-30T03:53:05.488Z,93.89
2022-11-30T03:58:28.429Z,91.93
2022-11-30T04:03:51.649Z,92.08
2022-11-30T04:09:13.580Z,91.85
2022-11-30T04:14:35.428Z,90.69
2022-11-30T04:19:57.234Z,90.14
2022-11-30T04:25:19.056Z,91.20
2022-11-30T04:30:41.307Z,92.04
2022-11-30T04:36:05.787Z,91.91
2022-11-30T04:41:27.582Z,91.69
2022-11-30T04:46:49.398Z,92.07
2022-11-30T04:52:11.232Z,92.40
2022-11-30T04:57:33.034Z,92.43
2022-11-30T05:02:56.389Z,93.11
2022-11-30T05:08:18.173Z,92.44
2022-11-30T05:13:39.954Z,92.98
2022-11-30T05:19:01.810Z,94.19
2022-11-30T05:24:23.571Z,92.46
2022-11-30T05:29:45.508Z,91.96
2022-11-30T05:35:07.634Z,93.44
2022-11-30T05:40:29.462Z,92.68
2022-11-30T05:45:51.230Z,93.12
2022-11-30T05:51:16.078Z,93.03
2022-11-30T05:56:37.924Z,95.08
2022-11-30T06:01:59.829Z,93.72
2022-11-30T06:07:21.705Z,93.15
2022-11-30T06:12:43.542Z,95.45
2022-11-30T06:18:06.394Z,95.02
2022-11-30T06:23:28.571Z,96.99
2022-11-30T06:28:50.433Z,95.19
2022-11-30T06:34:12.206Z,94.64
2022-11-30T06:40:04.210Z,95.62
2022-11-30T06:45:15.828Z,94.38
2022-11-30T06:50:37.686Z,94.85
2022-11-30T06:55:59.494Z,93.69
2022-11-30T07:01:21.277Z,95.25
2022-11-30T07:06:43.138Z,95.91
2022-11-30T07:12:05.352Z,96.12
2022-11-30T07:17:27.217Z,95.49
2022-11-30T07:22:48.988Z,95.63
2022-11-30T07:28:10.781Z,95.37
2022-11-30T07:33:32.569Z,96.43
2022-11-30T07:38:54.492Z,94.66
2022-11-30T07:44:16.317Z,95.90
2022-11-30T07:49:38.109Z,96.11
2022-11-30T07:54:59.925Z,97.24
2022-11-30T08:00:21.704Z,96.18
2022-11-30T08:05:43.490Z,94.87
2022-11-30T08:11:07.104Z,97.05
2022-11-30T08:16:30.356Z,96.16
2022-11-30T08:21:52.222Z,96.43
2022-11-30T08:27:14.006Z,98.75
2022-11-30T08:32:35.926Z,96.93
2022-11-30T08:37:57.766Z,95.81
2022-11-30T08:43:19.610Z,96.87
2022-11-30T08:48:41.444Z,94.54
2022-11-30T08:54:03.486Z,96.16
2022-11-30T08:59:25.399Z,98.40
2022-11-30T09:04:48.353Z,97.27
2022-11-30T09:10:10.938Z,97.36
2022-11-30T09:15:32.849Z,95.60
2022-11-30T09:21:01.475Z,94.84
2022-11-30T09:26:23.611Z,95.35
2022-11-30T09:31:45.520Z,95.24
2022-11-30T09:37:07.363Z,94.78
2022-11-30T09:42:32.036Z,96.41
2022-11-30T09:48:02.582Z,94.95
2022-11-30T09:53:57.915Z,96.07
2022-11-30T09:59:22.669Z,96.26
2022-11-30T10:04:45.553Z,96.54
2022-11-30T10:10:37.198Z,97.29
2022-11-30T10:16:18.015Z,96.40
2022-11-30T10:21:58.827Z,94.72
2022-11-30T10:27:53.483Z,94.23
2022-11-30T10:33:23.644Z,94.61
2022-11-30T10:38:50.371Z,94.34
2022-11-30T10:44:17.570Z,93.16
2022-11-30T10:49:45.419Z,93.61
2022-11-30T10:55:15.364Z,93.26
2022-11-30T11:00:37.186Z,94.55
2022-11-30T11:06:06.880Z,93.43
2022-11-30T11:11:32.669Z,93.45
2022-11-30T11:17:25.758Z,93.49
2022-11-30T11:22:47.783Z,93.38
2022-11-30T11:28:16.048Z,93.38
2022-11-30T11:33:50.910Z,94.54
2022-11-30T11:39:25.994Z,94.54
2022-11-30T11:44:53.372Z,94.63
2022-11-30T11:50:57.718Z,93.79
2022-11-30T11:56:14.122Z,95.88
2022-11-30T12:02:13.230Z,96.76
2022-11-30T12:07:58.162Z,95.20
2022-11-30T12:13:22.810Z,97.12
2022-11-30T12:18:56.818Z,95.53
2022-11-30T12:24:34.939Z,97.69
2022-11-30T12:29:56.672Z,96.41
2022-11-30T12:35:41.538Z,98.91
2022-11-30T12:41:19.215Z,98.87
2022-11-30T12:47:24.435Z,98.03
2022-11-30T12:53:12.424Z,100.00
2022-11-30T12:59:01.173Z,99.90
2022-11-30T13:04:45.261Z,99.10
2022-11-30T13:10:22.649Z,98.07
2022-11-30T13:15:45.962Z,98.40
2022-11-30T13:21:33.255Z,97.24
2022-11-30T13:27:00.433Z,98.22
2022-11-30T13:32:56.205Z,97.18
2022-11-30T13:38:35.885Z,95.22
2022-11-30T13:43:55.836Z,98.58
2022-11-30T13:49:20.266Z,98.12
2022-11-30T13:54:43.819Z,96.57
2022-11-30T14:00:45.708Z,96.80
2022-11-30T14:06:55.628Z,97.55
2022-11-30T14:12:32.711Z,96.45
2022-11-30T14:17:57.368Z,95.44
2022-11-30T14:23:22.247Z,95.37
2022-11-30T14:29:02.567Z,97.41
2022-11-30T14:34:36.473Z,96.82
2022-11-30T14:40:03.949Z,95.95
2022-11-30T14:45:27.053Z,97.33
2022-11-30T14:50:55.652Z,97.25
2022-11-30T14:56:43.960Z,95.89
2022-11-30T15:02:17.882Z,96.03
2022-11-30T15:07:42.131Z,95.95
2022-11-30T15:13:05.066Z,98.02
2022-11-30T15:18:26.855Z,98.16
2022-11-30T15:23:51.493Z,97.85
2022-11-30T15:29:20.404Z,95.86
2022-11-30T15:34:53.509Z,95.48
2022-11-30T15:40:33.493Z,95.25
2022-11-30T15:45:58.313Z,94.80
2022-11-30T15:51:26.641Z,94.90
2022-11-30T15:56:57.335Z,94.15
2022-11-30T16:02:36.365Z,93.80
2022-11-30T16:07:59.416Z,94.71
2022-11-30T16:13:22.635Z,95.25
2022-11-30T16:18:44.405Z,96.64
2022-11-30T16:24:06.524Z,96.53
2022-11-30T16:29:28.322Z,96.38
2022-11-30T16:34:50.142Z,95.67
2022-11-30T16:40:12.766Z,96.30
2022-11-30T16:45:36.821Z,97.73
2022-11-30T16:50:58.778Z,96.33
2022-11-30T16:56:20.714Z,96.30
2022-11-30T17:01:46.936Z,95.69
2022-11-30T17:07:09.277Z,93.37
2022-11-30T17:12:31.193Z,93.64
2022-11-30T17:17:53.006Z,93.17
2022-11-30T17:23:14.922Z,92.35
2022-11-30T17:28:36.731Z,93.22
2022-11-30T17:33:58.617Z,92.42
2022-11-30T17:39:20.447Z,92.27
2022-11-30T17:44:42.470Z,91.03
2022-11-30T17:50:05.358Z,91.31
2022-11-30T17:55:27.158Z,90.93
2022-11-30T18:00:50.739Z,91.02
2022-11-30T18:06:13.434Z,91.40
2022-11-30T18:11:35.308Z,90.76
2022-11-30T18:16:57.150Z,90.19
2022-11-30T18:22:19.484Z,91.40
2022-11-30T18:27:41.522Z,91.16
2022-11-30T18:33:03.360Z,89.92
2022-11-30T18:38:25.790Z,90.49
2022-11-30T18:43:47.648Z,90.36
2022-11-30T18:49:09.623Z,89.23
2022-11-30T18:54:31.428Z,90.36
2022-11-30T18:59:54.057Z,91.06
2022-11-30T19:05:16.587Z,90.19
2022-11-30T19:10:39.904Z,90.15
2022-11-30T19:16:05.728Z,89.54
2022-11-30T19:21:27.834Z,90.30
2022-11-30T19:26:49.697Z,91.19
2022-11-30T19:32:11.556Z,90.54
2022-11-30T19:37:33.477Z,89.81
2022-11-30T19:42:55.729Z,90.13
2022-11-30T19:48:17.510Z,89.87
2022-11-30T19:53:41.817Z,90.54
2022-11-30T19:59:05.689Z,90.81
2022-11-30T20:04:27.984Z,90.17
2022-11-30T20:09:49.989Z,90.23
2022-11-30T20:15:12.336Z,90.13
2022-11-30T20:20:34.379Z,90.52
2022-11-30T20:26:05.407Z,90.75
2022-11-30T20:31:28.970Z,91.23
2022-11-30T20:36:51.444Z,92.53
2022-11-30T20:42:13.753Z,92.71
2022-11-30T20:47:35.648Z,92.44
2022-11-30T20:52:57.427Z,93.26
2022-11-30T20:58:19.252Z,92.73
2022-11-30T21:03:41.782Z,93.80
2022-11-30T21:09:04.339Z,94.54
2022-11-30T21:14:26.329Z,94.83
2022-11-30T21:19:48.170Z,95.12
2022-11-30T21:25:10.012Z,94.59
2022-11-30T21:30:31.828Z,94.41
2022-11-30T21:35:53.658Z,94.44
2022-11-30T21:41:15.503Z,95.44
2022-11-30T21:46:37.604Z,95.44
2022-11-30T21:51:59.441Z,94.95
2022-11-30T21:57:21.700Z,96.02
2022-11-30T22:02:43.494Z,95.62
2022-11-30T22:08:05.407Z,94.34
2022-11-30T22:13:27.837Z,94.71
2022-11-30T22:18:53.848Z,95.28
2022-11-30T22:24:15.725Z,95.46
2022-11-30T22:29:37.612Z,98.08
2022-11-30T22:34:59.415Z,96.99
2022-11-30T22:40:21.200Z,96.81
2022-11-30T22:45:43.003Z,98.20
2022-11-30T22:51:10.184Z,97.24
2022-11-30T22:56:36.917Z,98.82
2022-11-30T23:01:58.814Z,99.30
2022-11-30T23:07:20.686Z,99.05
2022-11-30T23:12:59.058Z,97.75
2022-11-30T23:18:21.822Z,100.00
2022-11-30T23:23:44.502Z,99.91
2022-11-30T23:29:10.058Z,99.44
2022-11-30T23:34:31.864Z,100.00
2022-11-30T23:39:53.662Z,100.00
2022-11-30T23:45:15.461Z,100.00
2022-11-30T23:50:37.250Z,100.00
2022-11-30T23:56:04.225Z,100.00
